createdAt,value
2023-04-07T00:01:08.776Z,4.22
2023-04-07T00:03:38.862Z,2.92
2023-04-07T00:06:06.952Z,3.70
2023-04-07T00:08:34.327Z,4.05
2023-04-07T00:11:02.080Z,3.58
2023-04-07T00:13:30.820Z,5.97
2023-04-07T00:15:58.336Z,4.53
2023-04-07T00:18:26.192Z,4.12
2023-04-07T00:20:53.606Z,5.18
2023-04-07T00:23:21.324Z,5.82
2023-04-07T00:25:49.608Z,6.32
2023-04-07T00:28:17.038Z,4.72
2023-04-07T00:30:44.443Z,5.65
2023-04-07T00:33:12.154Z,6.03
2023-04-07T00:35:39.906Z,7.70
2023-04-07T00:38:07.658Z,4.70
2023-04-07T00:40:35.317Z,4.95
2023-04-07T00:43:02.777Z,5.50
2023-04-07T00:45:30.344Z,5.28
2023-04-07T00:47:58.951Z,6.35
2023-04-07T00:50:26.691Z,6.78
2023-04-07T00:52:55.003Z,6.12
2023-04-07T00:55:23.176Z,5.80
2023-04-07T00:57:51.845Z,6.05
2023-04-07T01:00:20.057Z,7.32
2023-04-07T01:03:10.087Z,4.85
2023-04-07T01:05:53.426Z,6.87
2023-04-07T01:08:26.340Z,6.07
2023-04-07T01:11:17.358Z,3.35
2023-04-07T01:13:52.623Z,4.00
2023-04-07T01:16:29.081Z,6.22
2023-04-07T01:19:01.331Z,5.15
2023-04-07T01:21:29.109Z,5.50
2023-04-07T01:24:50.994Z,5.28
2023-04-07T01:27:31.705Z,5.10
2023-04-07T01:30:01.850Z,4.75
2023-04-07T01:32:30.658Z,4.80
2023-04-07T01:34:59.011Z,7.25
2023-04-07T01:37:27.392Z,5.90
2023-04-07T01:39:55.000Z,4.15
2023-04-07T01:42:22.687Z,5.10
2023-04-07T01:44:51.200Z,5.72
2023-04-07T01:47:19.088Z,6.25
2023-04-07T01:49:47.493Z,4.12
2023-04-07T01:52:15.732Z,4.18
2023-04-07T01:54:43.237Z,4.22
2023-04-07T01:57:10.689Z,5.40
2023-04-07T01:59:38.481Z,5.82
2023-04-07T02:02:06.140Z,5.90
2023-04-07T02:04:52.690Z,3.37
2023-04-07T02:07:25.276Z,5.15
2023-04-07T02:09:56.828Z,3.08
2023-04-07T02:12:27.432Z,7.07
2023-04-07T02:14:56.725Z,6.62
2023-04-07T02:17:24.822Z,7.65
2023-04-07T02:19:53.259Z,6.40
2023-04-07T02:22:21.185Z,6.70
2023-04-07T02:24:48.807Z,7.30
2023-04-07T02:27:16.178Z,6.05
2023-04-07T02:29:43.848Z,5.55
2023-04-07T02:32:11.250Z,2.95
2023-04-07T02:34:38.644Z,4.15
2023-04-07T02:37:07.948Z,4.45
2023-04-07T02:39:35.438Z,6.18
2023-04-07T02:42:02.837Z,3.92
2023-04-07T02:44:31.330Z,6.72
2023-04-07T02:46:58.861Z,6.05
2023-04-07T02:49:26.315Z,5.15
2023-04-07T02:51:53.988Z,2.85
2023-04-07T02:54:21.629Z,5.07
2023-04-07T02:56:49.075Z,6.47
2023-04-07T02:59:17.105Z,3.67
2023-04-07T03:01:44.724Z,2.62
2023-04-07T03:04:12.454Z,6.25
2023-04-07T03:06:40.418Z,5.80
2023-04-07T03:09:08.019Z,5.15
2023-04-07T03:11:35.950Z,6.47
2023-04-07T03:14:03.718Z,5.05
2023-04-07T03:16:31.352Z,4.75
2023-04-07T03:18:59.208Z,4.68
2023-04-07T03:21:28.926Z,4.28
2023-04-07T03:23:56.439Z,4.18
2023-04-07T03:26:23.942Z,4.40
2023-04-07T03:28:52.123Z,3.70
2023-04-07T03:31:20.449Z,4.82
2023-04-07T03:33:50.105Z,5.53
2023-04-07T03:36:18.640Z,6.20
2023-04-07T03:38:47.527Z,4.95
2023-04-07T03:41:15.560Z,5.97
2023-04-07T03:43:43.190Z,3.22
2023-04-07T03:46:10.931Z,4.62
2023-04-07T03:48:38.737Z,5.60
2023-04-07T03:51:06.787Z,5.43
2023-04-07T03:53:34.418Z,6.45
2023-04-07T03:56:02.969Z,6.70
2023-04-07T03:58:33.185Z,4.22
2023-04-07T04:01:00.642Z,3.70
2023-04-07T04:03:28.454Z,4.03
2023-04-07T04:05:57.170Z,3.37
2023-04-07T04:08:27.128Z,7.10
2023-04-07T04:10:54.807Z,4.18
2023-04-07T04:13:24.234Z,5.75
2023-04-07T04:15:52.549Z,4.20
2023-04-07T04:18:20.832Z,3.70
2023-04-07T04:20:48.862Z,3.83
2023-04-07T04:23:16.545Z,3.47
2023-04-07T04:25:44.752Z,3.67
2023-04-07T04:28:12.291Z,6.50
2023-04-07T04:30:40.382Z,3.83
2023-04-07T04:33:08.094Z,3.87
2023-04-07T04:35:36.594Z,2.90
2023-04-07T04:38:04.615Z,4.55
2023-04-07T04:40:32.386Z,3.90
2023-04-07T04:42:59.987Z,5.90
2023-04-07T04:45:27.476Z,8.07
2023-04-07T04:47:56.376Z,4.87
2023-04-07T04:50:23.908Z,4.85
2023-04-07T04:52:51.414Z,4.03
2023-04-07T04:55:19.748Z,4.85
2023-04-07T04:57:47.328Z,7.25
2023-04-07T05:00:15.684Z,4.45
2023-04-07T05:02:43.883Z,4.95
2023-04-07T05:05:11.908Z,5.57
2023-04-07T05:07:40.514Z,3.60
2023-04-07T05:10:08.992Z,6.15
2023-04-07T05:12:37.348Z,4.35
2023-04-07T05:15:06.385Z,6.03
2023-04-07T05:17:34.327Z,6.28
2023-04-07T05:20:02.674Z,5.50
2023-04-07T05:22:31.064Z,4.68
2023-04-07T05:24:59.204Z,3.40
2023-04-07T05:27:27.248Z,7.32
2023-04-07T05:29:55.946Z,5.10
2023-04-07T05:32:24.866Z,6.53
2023-04-07T05:34:52.764Z,10.13
2023-04-07T05:37:20.715Z,7.12
2023-04-07T05:39:48.855Z,6.15
2023-04-07T05:42:16.423Z,6.78
2023-04-07T05:44:44.358Z,5.32
2023-04-07T05:47:12.422Z,4.35
2023-04-07T05:49:45.966Z,6.55
2023-04-07T05:52:14.361Z,8.57
2023-04-07T05:54:42.545Z,4.30
2023-04-07T05:57:11.703Z,5.95
2023-04-07T05:59:41.962Z,5.25
2023-04-07T06:02:09.489Z,6.47
2023-04-07T06:04:39.473Z,5.65
2023-04-07T06:07:07.178Z,5.30
2023-04-07T06:09:34.564Z,5.45
2023-04-07T06:12:05.030Z,6.37
2023-04-07T06:14:34.065Z,5.55
2023-04-07T06:17:01.768Z,6.32
2023-04-07T06:19:29.275Z,4.93
2023-04-07T06:21:56.669Z,3.37
2023-04-07T06:24:25.273Z,6.20
2023-04-07T06:26:52.978Z,6.50
2023-04-07T06:29:21.892Z,4.87
2023-04-07T06:31:49.940Z,5.93
2023-04-07T06:34:19.434Z,7.35
2023-04-07T06:36:46.906Z,4.00
2023-04-07T06:39:14.748Z,6.87
2023-04-07T06:41:43.546Z,4.95
2023-04-07T06:44:11.236Z,5.40
2023-04-07T06:46:39.361Z,6.53
2023-04-07T06:49:06.821Z,7.55
2023-04-07T06:51:34.204Z,6.15
2023-04-07T06:54:01.985Z,5.40
2023-04-07T06:56:29.355Z,6.40
2023-04-07T06:58:57.034Z,7.97
2023-04-07T07:01:24.761Z,7.37
2023-04-07T07:03:52.478Z,5.47
2023-04-07T07:06:20.267Z,4.72
2023-04-07T07:08:47.956Z,5.12
2023-04-07T07:11:15.453Z,4.53
2023-04-07T07:13:42.876Z,3.50
2023-04-07T07:16:10.829Z,7.37
2023-04-07T07:18:38.774Z,9.30
2023-04-07T07:21:06.176Z,7.22
2023-04-07T07:23:34.592Z,6.10
2023-04-07T07:26:02.026Z,7.03
2023-04-07T07:28:29.482Z,7.72
2023-04-07T07:30:57.266Z,4.57
2023-04-07T07:33:24.887Z,4.25
2023-04-07T07:35:52.592Z,4.53
2023-04-07T07:38:20.403Z,6.28
2023-04-07T07:40:47.794Z,5.43
2023-04-07T07:43:15.367Z,5.65
2023-04-07T07:45:43.066Z,3.58
2023-04-07T07:48:10.512Z,7.25
2023-04-07T07:50:37.953Z,6.15
2023-04-07T07:53:05.969Z,7.43
2023-04-07T07:55:33.398Z,6.43
2023-04-07T07:58:00.960Z,5.20
2023-04-07T08:00:28.913Z,5.85
2023-04-07T08:02:56.735Z,7.43
2023-04-07T08:05:24.376Z,6.57
2023-04-07T08:07:54.598Z,5.93
2023-04-07T08:10:23.286Z,7.45
2023-04-07T08:12:51.016Z,7.60
2023-04-07T08:15:18.489Z,7.35
2023-04-07T08:17:46.329Z,4.65
2023-04-07T08:20:13.750Z,8.93
2023-04-07T08:22:41.405Z,5.47
2023-04-07T08:25:09.195Z,7.82
2023-04-07T08:27:36.671Z,7.78
2023-04-07T08:30:09.003Z,6.22
2023-04-07T08:32:41.787Z,9.23
2023-04-07T08:35:09.396Z,3.70
2023-04-07T08:37:38.087Z,4.57
2023-04-07T08:40:06.241Z,6.70
2023-04-07T08:42:35.081Z,7.93
2023-04-07T08:45:07.138Z,6.03
2023-04-07T08:47:36.024Z,7.85
2023-04-07T08:50:08.460Z,7.18
2023-04-07T08:52:51.491Z,7.18
2023-04-07T08:55:19.437Z,5.40
2023-04-07T08:57:47.451Z,5.57
2023-04-07T09:00:15.540Z,6.75
2023-04-07T09:02:48.918Z,6.35
2023-04-07T09:05:16.535Z,7.28
2023-04-07T09:07:44.382Z,4.85
2023-04-07T09:10:11.969Z,7.53
2023-04-07T09:12:39.546Z,6.28
2023-04-07T09:15:08.906Z,6.47
2023-04-07T09:17:36.390Z,5.75
2023-04-07T09:20:04.978Z,6.90
2023-04-07T09:22:38.808Z,9.15
2023-04-07T09:25:27.736Z,7.85
2023-04-07T09:27:59.595Z,6.28
2023-04-07T09:30:28.458Z,7.10
2023-04-07T09:32:57.028Z,5.95
2023-04-07T09:35:24.808Z,4.22
2023-04-07T09:38:10.679Z,5.07
2023-04-07T09:40:38.700Z,7.10
2023-04-07T09:43:06.754Z,8.45
2023-04-07T09:45:36.994Z,6.10
2023-04-07T09:48:10.956Z,9.73
2023-04-07T09:50:42.111Z,6.65
2023-04-07T09:53:09.852Z,5.75
2023-04-07T09:55:38.455Z,6.82
2023-04-07T09:58:06.545Z,6.45
2023-04-07T10:00:35.625Z,5.70
2023-04-07T10:03:04.250Z,8.07
2023-04-07T10:05:33.354Z,7.40
2023-04-07T10:08:01.990Z,6.28
2023-04-07T10:10:30.315Z,5.68
2023-04-07T10:12:59.042Z,8.32
2023-04-07T10:15:26.732Z,6.50
2023-04-07T10:17:56.902Z,8.57
2023-04-07T10:20:24.918Z,8.48
2023-04-07T10:22:53.941Z,7.68
2023-04-07T10:25:24.475Z,6.05
2023-04-07T10:28:05.240Z,8.10
2023-04-07T10:30:33.731Z,5.70
2023-04-07T10:33:01.298Z,6.78
2023-04-07T10:35:29.860Z,7.07
2023-04-07T10:38:14.242Z,5.43
2023-04-07T10:40:42.839Z,6.37
2023-04-07T10:43:11.607Z,7.55
2023-04-07T10:45:48.559Z,7.50
2023-04-07T10:48:17.204Z,4.10
2023-04-07T10:51:10.841Z,5.37
2023-04-07T10:53:38.530Z,9.05
2023-04-07T10:56:06.036Z,9.00
2023-04-07T10:58:33.769Z,6.18
2023-04-07T11:01:07.617Z,6.18
2023-04-07T11:03:36.804Z,6.62
2023-04-07T11:06:09.059Z,6.15
2023-04-07T11:08:43.360Z,5.78
2023-04-07T11:11:13.133Z,5.82
2023-04-07T11:13:48.776Z,7.25
2023-04-07T11:16:18.557Z,6.55
2023-04-07T11:18:47.923Z,8.20
2023-04-07T11:21:19.664Z,7.20
2023-04-07T11:23:48.031Z,5.37
2023-04-07T11:26:16.470Z,3.90
2023-04-07T11:28:48.822Z,6.62
2023-04-07T11:31:27.283Z,5.50
2023-04-07T11:34:02.949Z,4.93
2023-04-07T11:36:39.317Z,4.10
2023-04-07T11:39:21.509Z,6.07
2023-04-07T11:41:51.129Z,6.07
2023-04-07T11:44:18.891Z,5.85
2023-04-07T11:46:57.299Z,7.60
2023-04-07T11:49:30.100Z,6.53
2023-04-07T11:52:07.573Z,5.85
2023-04-07T11:54:47.140Z,4.90
2023-04-07T11:57:14.799Z,5.90
2023-04-07T11:59:42.602Z,6.30
2023-04-07T12:02:10.378Z,6.85
2023-04-07T12:04:40.692Z,6.28
2023-04-07T12:07:10.293Z,6.78
2023-04-07T12:09:38.357Z,6.80
2023-04-07T12:12:07.916Z,6.93
2023-04-07T12:14:36.650Z,5.60
2023-04-07T12:17:04.600Z,7.80
2023-04-07T12:19:35.861Z,7.90
2023-04-07T12:22:04.608Z,6.95
2023-04-07T12:24:34.932Z,7.05
2023-04-07T12:27:03.123Z,6.25
2023-04-07T12:29:30.819Z,7.03
2023-04-07T12:31:58.254Z,5.50
2023-04-07T12:34:25.728Z,7.35
2023-04-07T12:36:53.622Z,7.43
2023-04-07T12:39:21.037Z,7.07
2023-04-07T12:41:53.238Z,9.13
2023-04-07T12:44:20.989Z,5.47
2023-04-07T12:46:48.483Z,5.62
2023-04-07T12:49:16.694Z,6.07
2023-04-07T12:51:44.387Z,6.28
2023-04-07T12:54:11.786Z,5.62
2023-04-07T12:56:40.831Z,5.20
2023-04-07T12:59:09.712Z,7.45
2023-04-07T13:01:37.451Z,7.10
2023-04-07T13:04:05.101Z,9.95
2023-04-07T13:06:33.677Z,6.50
2023-04-07T13:09:01.110Z,10.23
2023-04-07T13:11:28.532Z,8.77
2023-04-07T13:13:57.925Z,39.35
2023-04-07T13:16:26.731Z,30.85
2023-04-07T13:18:54.353Z,7.30
2023-04-07T13:23:53.665Z,14.05
2023-04-07T13:26:21.155Z,8.48
2023-04-07T13:28:48.839Z,13.95
2023-04-07T13:31:16.822Z,6.65
2023-04-07T13:33:44.438Z,7.22
2023-04-07T13:36:12.153Z,7.45
2023-04-07T13:38:39.563Z,7.65
2023-04-07T13:41:07.242Z,5.65
2023-04-07T13:43:34.963Z,7.65
2023-04-07T13:46:02.466Z,6.37
2023-04-07T13:48:29.956Z,4.75
2023-04-07T13:50:57.842Z,5.97
2023-04-07T13:53:25.336Z,7.47
2023-04-07T13:55:52.830Z,6.95
2023-04-07T13:58:20.593Z,6.97
2023-04-07T14:00:48.008Z,7.50
2023-04-07T14:03:15.865Z,7.65
2023-04-07T14:05:43.444Z,6.65
2023-04-07T14:08:11.144Z,6.53
2023-04-07T14:10:39.806Z,5.60
2023-04-07T14:13:07.571Z,6.28
2023-04-07T14:15:35.058Z,6.32
2023-04-07T14:18:02.868Z,7.78
2023-04-07T14:20:30.398Z,7.80
2023-04-07T14:22:57.994Z,7.87
2023-04-07T14:25:25.747Z,7.60
2023-04-07T14:27:53.387Z,8.80
2023-04-07T14:30:20.952Z,7.78
2023-04-07T14:32:48.805Z,9.35
2023-04-07T14:35:16.292Z,6.45
2023-04-07T14:37:43.833Z,4.68
2023-04-07T14:40:12.174Z,9.60
2023-04-07T14:42:40.058Z,7.70
2023-04-07T14:45:08.276Z,9.60
2023-04-07T14:47:35.990Z,8.50
2023-04-07T14:50:03.884Z,8.48
2023-04-07T14:52:32.467Z,9.02
2023-04-07T14:55:00.544Z,9.88
2023-04-07T14:57:28.015Z,8.60
2023-04-07T14:59:55.484Z,7.90
2023-04-07T15:02:23.387Z,8.93
2023-04-07T15:04:50.919Z,7.68
2023-04-07T15:07:18.403Z,6.82
2023-04-07T15:09:47.896Z,7.55
2023-04-07T15:12:15.340Z,5.78
2023-04-07T15:14:43.952Z,8.85
2023-04-07T15:17:11.936Z,8.25
2023-04-07T15:19:39.397Z,6.97
2023-04-07T15:22:06.790Z,9.18
2023-04-07T15:24:34.574Z,9.07
2023-04-07T15:27:02.083Z,10.63
2023-04-07T15:29:29.500Z,7.65
2023-04-07T15:31:57.270Z,10.38
2023-04-07T15:34:24.810Z,8.75
2023-04-07T15:36:52.206Z,9.57
2023-04-07T15:39:19.879Z,8.27
2023-04-07T15:41:47.312Z,10.48
2023-04-07T15:44:18.144Z,12.43
2023-04-07T15:46:46.288Z,11.43
2023-04-07T15:49:27.374Z,7.97
2023-04-07T15:51:56.197Z,10.10
2023-04-07T15:54:23.677Z,11.65
2023-04-07T15:56:51.704Z,10.38
2023-04-07T15:59:19.737Z,11.95
2023-04-07T16:01:47.445Z,12.88
2023-04-07T16:04:15.659Z,9.95
2023-04-07T16:06:43.164Z,8.38
2023-04-07T16:09:10.592Z,7.57
2023-04-07T16:11:38.397Z,10.40
2023-04-07T16:14:08.377Z,10.10
2023-04-07T16:16:37.134Z,10.80
2023-04-07T16:19:04.934Z,12.63
2023-04-07T16:21:32.456Z,10.75
2023-04-07T16:23:59.883Z,10.75
2023-04-07T16:26:27.602Z,7.72
2023-04-07T16:28:55.087Z,8.65
2023-04-07T16:31:22.542Z,7.12
2023-04-07T16:33:51.100Z,12.55
2023-04-07T16:36:18.612Z,8.68
2023-04-07T16:38:46.257Z,11.65
2023-04-07T16:41:13.953Z,9.48
2023-04-07T16:43:41.367Z,10.80
2023-04-07T16:46:08.877Z,11.50
2023-04-07T16:48:36.611Z,10.05
2023-04-07T16:51:04.083Z,6.35
2023-04-07T16:53:31.470Z,9.13
2023-04-07T16:55:59.173Z,9.13
2023-04-07T16:58:26.582Z,10.32
2023-04-07T17:00:54.020Z,8.18
2023-04-07T17:03:21.840Z,11.73
2023-04-07T17:05:49.499Z,11.30
2023-04-07T17:08:16.980Z,10.00
2023-04-07T17:10:44.698Z,10.48
2023-04-07T17:13:12.343Z,8.70
2023-04-07T17:15:39.752Z,8.50
2023-04-07T17:18:07.454Z,9.27
2023-04-07T17:20:34.920Z,9.55
2023-04-07T17:23:02.319Z,11.80
2023-04-07T17:25:30.047Z,10.25
2023-04-07T17:27:57.475Z,10.88
2023-04-07T17:30:24.879Z,10.85
2023-04-07T17:32:53.613Z,12.18
2023-04-07T17:35:21.361Z,11.55
2023-04-07T17:37:49.494Z,13.77
2023-04-07T17:40:17.433Z,13.60
2023-04-07T17:42:45.756Z,15.65
2023-04-07T17:45:13.149Z,12.48
2023-04-07T17:47:40.890Z,12.43
2023-04-07T17:50:08.912Z,11.43
2023-04-07T17:52:36.305Z,12.23
2023-04-07T17:55:04.164Z,9.82
2023-04-07T17:57:32.522Z,9.07
2023-04-07T17:59:59.962Z,10.70
2023-04-07T18:02:28.940Z,11.48
2023-04-07T18:05:00.994Z,9.70
2023-04-07T18:07:29.409Z,12.25
2023-04-07T18:09:58.000Z,12.88
2023-04-07T18:12:25.455Z,14.52
2023-04-07T18:14:53.287Z,11.45
2023-04-07T18:17:21.029Z,11.65
2023-04-07T18:19:48.779Z,14.35
2023-04-07T18:22:16.347Z,13.40
2023-04-07T18:24:44.570Z,6.85
2023-04-07T18:27:12.325Z,7.62
2023-04-07T18:29:39.688Z,12.10
2023-04-07T18:32:07.521Z,10.80
2023-04-07T18:34:35.078Z,9.65
2023-04-07T18:37:02.695Z,11.57
2023-04-07T18:39:30.510Z,11.85
2023-04-07T18:41:57.958Z,9.50
2023-04-07T18:44:25.701Z,9.35
2023-04-07T18:46:53.774Z,11.95
2023-04-07T18:49:21.715Z,5.87
2023-04-07T18:51:49.302Z,10.75
2023-04-07T18:54:17.687Z,7.72
2023-04-07T18:56:45.294Z,7.87
2023-04-07T18:59:12.890Z,6.50
2023-04-07T19:01:42.499Z,7.70
2023-04-07T19:04:10.175Z,6.87
2023-04-07T19:06:37.761Z,9.63
2023-04-07T19:09:05.731Z,6.75
2023-04-07T19:11:33.275Z,6.00
2023-04-07T19:14:00.721Z,6.75
2023-04-07T19:16:28.606Z,12.18
2023-04-07T19:18:56.363Z,10.35
2023-04-07T19:21:23.798Z,10.15
2023-04-07T19:23:52.736Z,11.73
2023-04-07T19:26:20.224Z,10.43
2023-04-07T19:28:48.412Z,9.05
2023-04-07T19:31:16.064Z,10.85
2023-04-07T19:33:43.573Z,8.75
2023-04-07T19:36:11.202Z,8.55
2023-04-07T19:38:39.092Z,8.85
2023-04-07T19:41:06.888Z,10.10
2023-04-07T19:43:34.375Z,7.18
2023-04-07T19:46:03.587Z,6.05
2023-04-07T19:48:32.564Z,6.25
2023-04-07T19:50:59.972Z,5.57
2023-04-07T19:53:29.039Z,8.13
2023-04-07T19:55:56.600Z,6.80
2023-04-07T19:58:24.973Z,8.38
2023-04-07T20:00:54.164Z,10.32
2023-04-07T20:04:15.391Z,9.20
2023-04-07T20:06:43.279Z,10.60
2023-04-07T20:09:10.761Z,10.27
2023-04-07T20:11:38.149Z,7.65
2023-04-07T20:14:05.839Z,8.50
2023-04-07T20:16:33.458Z,10.60
2023-04-07T20:19:01.072Z,8.00
2023-04-07T20:21:28.819Z,7.47
2023-04-07T20:23:56.425Z,6.47
2023-04-07T20:26:24.100Z,6.15
2023-04-07T20:28:51.927Z,5.93
2023-04-07T20:31:19.517Z,8.27
2023-04-07T20:33:47.097Z,7.82
2023-04-07T20:36:14.774Z,8.05
2023-04-07T20:38:43.866Z,4.18
2023-04-07T20:41:12.956Z,8.38
2023-04-07T20:43:41.163Z,7.28
2023-04-07T20:46:08.773Z,9.60
2023-04-07T20:48:36.477Z,9.35
2023-04-07T20:51:04.337Z,8.05
2023-04-07T20:53:31.786Z,7.97
2023-04-07T20:55:59.230Z,6.78
2023-04-07T20:58:27.080Z,6.28
2023-04-07T21:00:59.033Z,11.90
2023-04-07T21:03:28.114Z,10.13
2023-04-07T21:05:56.691Z,6.50
2023-04-07T21:08:24.681Z,6.95
2023-04-07T21:10:53.343Z,6.45
2023-04-07T21:13:22.358Z,4.47
2023-04-07T21:15:49.814Z,5.47
2023-04-07T21:18:18.832Z,7.55
2023-04-07T21:20:47.307Z,6.43
2023-04-07T21:23:14.694Z,9.63
2023-04-07T21:25:42.357Z,6.03
2023-04-07T21:28:09.814Z,7.90
2023-04-07T21:30:41.418Z,4.55
2023-04-07T21:33:09.147Z,5.62
2023-04-07T21:35:37.604Z,8.80
2023-04-07T21:38:05.028Z,8.98
2023-04-07T21:40:32.674Z,6.82
2023-04-07T21:43:00.133Z,6.62
2023-04-07T21:45:28.001Z,6.10
2023-04-07T21:47:56.738Z,6.47
2023-04-07T21:50:24.833Z,5.03
2023-04-07T21:52:53.419Z,7.40
2023-04-07T21:55:21.374Z,7.25
2023-04-07T21:57:50.239Z,5.87
2023-04-07T22:00:17.849Z,6.65
2023-04-07T22:02:45.965Z,7.50
2023-04-07T22:05:13.668Z,6.87
2023-04-07T22:07:41.219Z,6.53
2023-04-07T22:10:09.440Z,5.47
2023-04-07T22:12:36.899Z,4.18
2023-04-07T22:15:04.668Z,6.30
2023-04-07T22:17:32.541Z,4.12
2023-04-07T22:19:59.926Z,4.75
2023-04-07T22:22:27.510Z,5.95
2023-04-07T22:24:55.162Z,7.80
2023-04-07T22:27:22.562Z,7.87
2023-04-07T22:29:49.981Z,5.82
2023-04-07T22:32:17.936Z,6.30
2023-04-07T22:34:46.551Z,4.87
2023-04-07T22:37:13.971Z,4.85
2023-04-07T22:39:41.618Z,3.97
2023-04-07T22:42:09.012Z,5.07
2023-04-07T22:44:36.386Z,4.05
2023-04-07T22:47:04.238Z,6.18
2023-04-07T22:49:32.338Z,6.03
2023-04-07T22:51:59.798Z,5.03
2023-04-07T22:54:27.507Z,4.47
2023-04-07T22:56:54.944Z,3.85
2023-04-07T22:59:22.324Z,6.20
2023-04-07T23:01:50.030Z,7.45
2023-04-07T23:04:17.517Z,5.30
2023-04-07T23:06:44.956Z,4.57
2023-04-07T23:09:12.746Z,5.90
2023-04-07T23:11:40.157Z,5.60
2023-04-07T23:14:07.947Z,4.22
2023-04-07T23:16:35.891Z,5.00
2023-04-07T23:19:03.385Z,3.40
2023-04-07T23:21:32.083Z,3.60
2023-04-07T23:24:00.254Z,6.20
2023-04-07T23:26:27.751Z,5.78
2023-04-07T23:28:55.349Z,7.60
2023-04-07T23:31:23.106Z,5.07
2023-04-07T23:33:50.637Z,2.83
2023-04-07T23:36:18.111Z,5.15
2023-04-07T23:38:45.882Z,6.35
2023-04-07T23:41:13.270Z,7.65
2023-04-07T23:43:40.694Z,4.60
2023-04-07T23:46:08.419Z,3.97
2023-04-07T23:48:36.345Z,5.90
2023-04-07T23:51:03.692Z,3.67
2023-04-07T23:53:31.386Z,5.85
2023-04-07T23:55:58.781Z,5.18
2023-04-07T23:58:26.242Z,5.78
